罗盘
风向 的 风向 的 风向 到 风向 080°
风: 11 kt, 4 beaufort

添加一条跑道以查看侧风和逆风信息。

添置 跑道
0 1.000 2.000 3.000 4.000 5.000
BKN 1.000 ft
OVC 1.800 ft
METAR LFMK 140030Z AUTO 08011KT 050V110 9999 BKN010 OVC018 25/23 Q1009

METAR Ulmodrome de Limoux - FR-0329

Ulmodrome de Limoux是Limoux,法国中的小机场。 该领域的国际民航组织标志是FR-0329.

这份报告是针对2022年8月14日 02:30, 当地时间在Carcassonne Airport进行的。

机场观察

风向为080°,速度为11 kt。 风向在050°和110°之间变化。

可见度为10 km 或者更多。

有碎云在1.000 ft的高度 和 乌云密布在1.800 ft的高度。 破损或更高的上限为1.000 ft。

温度和风寒是25 °C。 露点为23 °C,相对湿度为89%。 海平面上的气压为1009 hPa (QNH)。

白天

今天,太阳从06:55升起,在20:55降落。 这适用于Ulmodrome de Limoux,世界夏令时可能有所不同。 当地时间与世界标准时间之间的时差为+2 小时。 夏令时目前正在进行中。

公司介绍

我们没有关于这个机场的公司信息。

体会

到Vliegles.nl去找飞行课程,跳伞和其他飞行体验。 浏览页面,了解Ulmodrome de Limoux附近所有可用的活动。 你也可以使用搜索功能来寻找你所在地附近的特定飞行课程、跳伞或其他飞行体验。

乌云

1.000 ft BKN 碎云
1.800 ft OVC 乌云密布

温度 & 天气

温度 25 °C
露点 23 °C
相对湿度 89%
Kp-index 2  

白天

日出
06:55 (4h 14m)
中午
13:55
日落
20:55

小工具

你想在你的网站上有一个关于Ulmodrome de Limoux的当前航空天气(METAR)的小部件吗?

</> 显示HTML代码

我们和第三方通过cookies跟踪您在我们网站上的上网行为。如果您继续,我们认为您同意我们的cookie政策。 了解更多